Terminal Aerodrome Forecast
Issued by NWS Austin/San Antonio, TX

Home | Current Version | Previous Version | Text Only | Print | Product List | Glossary On
Versions: 1 2 3 4 5 6 7 8 9 10 11 12 13 14
000
FTUS44 KEWX 031120
TAFAUS
TAF
KAUS 031120Z 0312/0418 19005KT 6SM BR SCT035
     FM031400 16011KT P6SM SCT035
     FM040300 16005KT P6SM BKN025=

USA.gov is the U.S. government's official web portal to all federal, state and local government web resources and services.